Oshtemo, Michigan
Current Conditions -  °F | °C
As of 1:53 PM on Monday 22 Dec 2014 (Local Time) from KAZO Reporting Station
Overcast Overcast  
Wind Chill: 30°   Ceiling: 5500
Heat Index: 37°   Visibility: 7mi
Dew Point: 28°   Wind: 9mph
Humidity: 70%   Direction: 120°ESE
Pressure: 29.88"   Gusts: NA
Location:  42.26°N, 85.68°W
Report Text: KAZO 221853Z 12008KT 7SM BKN055 OVC070 03/M02 A2988 RMK AO2 SLP127 T00281022
Loading
Personal Weather Stations






























Interactive Weather Map New forecast layout! Learn more

10-Day Weather Forecast

Advertisements
Track Severe Weather on mobile